sensor_id;sensor_type;location;lat;lon;timestamp;P1;durP1;ratioP1;P2;durP2;ratioP2
66581;SDS011;53438;48.898;2.308;2023-07-16T03:02:24;11.45;;;3.80;;
66581;SDS011;53438;48.898;2.308;2023-07-16T03:04:49;11.47;;;4.17;;
66581;SDS011;53438;48.898;2.308;2023-07-16T03:07:14;10.70;;;4.07;;
66581;SDS011;53438;48.898;2.308;2023-07-16T03:09:39;10.70;;;4.30;;
66581;SDS011;53438;48.898;2.308;2023-07-16T03:12:05;9.63;;;4.00;;
66581;SDS011;53438;48.898;2.308;2023-07-16T03:14:31;12.57;;;4.00;;
66581;SDS011;53438;48.898;2.308;2023-07-16T03:16:56;15.47;;;4.20;;
66581;SDS011;53438;48.898;2.308;2023-07-16T03:19:21;10.88;;;4.03;;
66581;SDS011;53438;48.898;2.308;2023-07-16T03:21:47;9.02;;;4.03;;
66581;SDS011;53438;48.898;2.308;2023-07-16T03:24:14;11.13;;;3.90;;
66581;SDS011;53438;48.898;2.308;2023-07-16T03:26:39;10.35;;;3.83;;
66581;SDS011;53438;48.898;2.308;2023-07-16T03:29:04;12.75;;;4.10;;
66581;SDS011;53438;48.898;2.308;2023-07-16T03:31:29;10.07;;;4.13;;
66581;SDS011;53438;48.898;2.308;2023-07-16T03:33:55;12.03;;;4.53;;
66581;SDS011;53438;48.898;2.308;2023-07-16T03:36:20;10.93;;;4.47;;
66581;SDS011;53438;48.898;2.308;2023-07-16T03:38:45;9.87;;;3.87;;
66581;SDS011;53438;48.898;2.308;2023-07-16T03:41:11;14.80;;;4.47;;
66581;SDS011;53438;48.898;2.308;2023-07-16T03:43:36;12.60;;;4.70;;
66581;SDS011;53438;48.898;2.308;2023-07-16T03:46:01;9.53;;;4.50;;
66581;SDS011;53438;48.898;2.308;2023-07-16T03:48:27;9.68;;;4.50;;
66581;SDS011;53438;48.898;2.308;2023-07-16T03:50:52;12.52;;;4.90;;
66581;SDS011;53438;48.898;2.308;2023-07-16T03:53:17;12.63;;;4.03;;
66581;SDS011;53438;48.898;2.308;2023-07-16T03:55:43;14.67;;;5.00;;
66581;SDS011;53438;48.898;2.308;2023-07-16T03:58:08;12.03;;;5.03;;
66581;SDS011;53438;48.898;2.308;2023-07-16T04:00:33;9.13;;;4.43;;
66581;SDS011;53438;48.898;2.308;2023-07-16T04:02:59;12.20;;;5.30;;
66581;SDS011;53438;48.898;2.308;2023-07-16T04:05:24;14.37;;;5.80;;
66581;SDS011;53438;48.898;2.308;2023-07-16T04:07:50;13.68;;;4.97;;
66581;SDS011;53438;48.898;2.308;2023-07-16T04:10:16;12.77;;;5.37;;
66581;SDS011;53438;48.898;2.308;2023-07-16T04:12:41;15.80;;;4.65;;
66581;SDS011;53438;48.898;2.308;2023-07-16T04:15:07;12.73;;;4.53;;
66581;SDS011;53438;48.898;2.308;2023-07-16T04:17:34;11.43;;;4.50;;
66581;SDS011;53438;48.898;2.308;2023-07-16T04:20:00;13.05;;;5.05;;
66581;SDS011;53438;48.898;2.308;2023-07-16T04:22:25;11.70;;;5.30;;
66581;SDS011;53438;48.898;2.308;2023-07-16T04:24:50;12.03;;;5.20;;
66581;SDS011;53438;48.898;2.308;2023-07-16T04:27:16;15.57;;;4.70;;
66581;SDS011;53438;48.898;2.308;2023-07-16T04:29:41;13.67;;;5.10;;
66581;SDS011;53438;48.898;2.308;2023-07-16T04:32:06;17.53;;;4.80;;
66581;SDS011;53438;48.898;2.308;2023-07-16T04:34:32;13.23;;;4.90;;
66581;SDS011;53438;48.898;2.308;2023-07-16T04:36:57;15.65;;;4.40;;
66581;SDS011;53438;48.898;2.308;2023-07-16T04:39:22;16.25;;;4.60;;
66581;SDS011;53438;48.898;2.308;2023-07-16T04:41:48;14.63;;;4.90;;
66581;SDS011;53438;48.898;2.308;2023-07-16T04:44:13;13.33;;;5.17;;
66581;SDS011;53438;48.898;2.308;2023-07-16T04:46:38;13.87;;;5.23;;
66581;SDS011;53438;48.898;2.308;2023-07-16T04:49:04;19.50;;;5.37;;
66581;SDS011;53438;48.898;2.308;2023-07-16T04:51:31;12.52;;;4.50;;
66581;SDS011;53438;48.898;2.308;2023-07-16T04:53:56;14.33;;;4.33;;
66581;SDS011;53438;48.898;2.308;2023-07-16T04:56:22;13.27;;;5.60;;
66581;SDS011;53438;48.898;2.308;2023-07-16T04:58:47;14.63;;;5.63;;
66581;SDS011;53438;48.898;2.308;2023-07-16T05:01:12;14.93;;;4.93;;
66581;SDS011;53438;48.898;2.308;2023-07-16T05:03:37;17.38;;;4.82;;
66581;SDS011;53438;48.898;2.308;2023-07-16T05:06:03;11.77;;;4.78;;
66581;SDS011;53438;48.898;2.308;2023-07-16T05:08:29;13.47;;;5.00;;
66581;SDS011;53438;48.898;2.308;2023-07-16T05:10:54;15.37;;;5.20;;
66581;SDS011;53438;48.898;2.308;2023-07-16T05:13:20;10.05;;;4.70;;
66581;SDS011;53438;48.898;2.308;2023-07-16T05:15:45;17.20;;;4.90;;
66581;SDS011;53438;48.898;2.308;2023-07-16T05:18:11;21.57;;;5.70;;
66581;SDS011;53438;48.898;2.308;2023-07-16T05:20:37;12.35;;;4.68;;
66581;SDS011;53438;48.898;2.308;2023-07-16T05:23:02;13.27;;;5.50;;
66581;SDS011;53438;48.898;2.308;2023-07-16T05:25:27;12.57;;;5.20;;
66581;SDS011;53438;48.898;2.308;2023-07-16T05:27:53;13.63;;;5.10;;
66581;SDS011;53438;48.898;2.308;2023-07-16T05:30:18;12.90;;;5.47;;
66581;SDS011;53438;48.898;2.308;2023-07-16T05:32:44;16.87;;;5.60;;
66581;SDS011;53438;48.898;2.308;2023-07-16T05:35:09;12.57;;;5.10;;
66581;SDS011;53438;48.898;2.308;2023-07-16T05:37:35;11.87;;;5.60;;
66581;SDS011;53438;48.898;2.308;2023-07-16T05:40:00;13.65;;;5.35;;
66581;SDS011;53438;48.898;2.308;2023-07-16T05:42:25;14.05;;;4.78;;
66581;SDS011;53438;48.898;2.308;2023-07-16T05:44:51;12.07;;;5.20;;
66581;SDS011;53438;48.898;2.308;2023-07-16T05:47:16;13.47;;;5.20;;
66581;SDS011;53438;48.898;2.308;2023-07-16T05:49:42;12.30;;;4.73;;
66581;SDS011;53438;48.898;2.308;2023-07-16T05:52:08;19.73;;;5.65;;
66581;SDS011;53438;48.898;2.308;2023-07-16T05:54:34;10.60;;;4.57;;
66581;SDS011;53438;48.898;2.308;2023-07-16T05:56:59;16.33;;;5.83;;
66581;SDS011;53438;48.898;2.308;2023-07-16T05:59:25;11.93;;;4.93;;
66581;SDS011;53438;48.898;2.308;2023-07-16T06:01:50;20.80;;;5.05;;
66581;SDS011;53438;48.898;2.308;2023-07-16T06:04:16;17.03;;;6.27;;
66581;SDS011;53438;48.898;2.308;2023-07-16T06:06:42;17.85;;;4.80;;
66581;SDS011;53438;48.898;2.308;2023-07-16T06:09:08;14.97;;;5.27;;
66581;SDS011;53438;48.898;2.308;2023-07-16T06:11:33;12.67;;;4.83;;
66581;SDS011;53438;48.898;2.308;2023-07-16T06:13:58;15.20;;;5.20;;
66581;SDS011;53438;48.898;2.308;2023-07-16T06:16:24;12.93;;;5.23;;
66581;SDS011;53438;48.898;2.308;2023-07-16T06:18:49;14.50;;;5.27;;
66581;SDS011;53438;48.898;2.308;2023-07-16T06:21:14;13.02;;;5.13;;
66581;SDS011;53438;48.898;2.308;2023-07-16T06:23:40;16.30;;;5.30;;
66581;SDS011;53438;48.898;2.308;2023-07-16T06:26:05;15.43;;;5.03;;
66581;SDS011;53438;48.898;2.308;2023-07-16T06:28:30;16.67;;;5.10;;
66581;SDS011;53438;48.898;2.308;2023-07-16T06:30:56;15.65;;;5.55;;
66581;SDS011;53438;48.898;2.308;2023-07-16T06:33:21;17.67;;;5.25;;
66581;SDS011;53438;48.898;2.308;2023-07-16T06:35:47;18.23;;;5.90;;
66581;SDS011;53438;48.898;2.308;2023-07-16T06:38:16;12.80;;;4.80;;
66581;SDS011;53438;48.898;2.308;2023-07-16T06:40:50;14.80;;;5.57;;
66581;SDS011;53438;48.898;2.308;2023-07-16T06:43:17;15.70;;;4.95;;
66581;SDS011;53438;48.898;2.308;2023-07-16T06:45:43;20.48;;;5.60;;
66581;SDS011;53438;48.898;2.308;2023-07-16T06:48:09;14.23;;;5.57;;
66581;SDS011;53438;48.898;2.308;2023-07-16T06:50:34;21.50;;;5.72;;
66581;SDS011;53438;48.898;2.308;2023-07-16T06:52:59;14.43;;;5.43;;
66581;SDS011;53438;48.898;2.308;2023-07-16T06:55:25;14.13;;;5.37;;
66581;SDS011;53438;48.898;2.308;2023-07-16T06:57:50;17.70;;;5.10;;
66581;SDS011;53438;48.898;2.308;2023-07-16T07:00:15;16.60;;;5.27;;
66581;SDS011;53438;48.898;2.308;2023-07-16T07:02:41;14.45;;;4.38;;
66581;SDS011;53438;48.898;2.308;2023-07-16T07:05:07;14.07;;;5.63;;
66581;SDS011;53438;48.898;2.308;2023-07-16T07:07:32;18.67;;;4.80;;
66581;SDS011;53438;48.898;2.308;2023-07-16T07:09:58;12.93;;;4.68;;
66581;SDS011;53438;48.898;2.308;2023-07-16T07:12:23;16.67;;;5.43;;
66581;SDS011;53438;48.898;2.308;2023-07-16T07:14:48;18.07;;;5.23;;
66581;SDS011;53438;48.898;2.308;2023-07-16T07:17:14;15.10;;;4.77;;
66581;SDS011;53438;48.898;2.308;2023-07-16T07:19:40;18.37;;;5.47;;
66581;SDS011;53438;48.898;2.308;2023-07-16T07:22:06;15.75;;;4.88;;
66581;SDS011;53438;48.898;2.308;2023-07-16T07:24:32;12.82;;;5.20;;
66581;SDS011;53438;48.898;2.308;2023-07-16T07:26:57;18.07;;;5.07;;
66581;SDS011;53438;48.898;2.308;2023-07-16T07:29:23;17.37;;;5.67;;
66581;SDS011;53438;48.898;2.308;2023-07-16T07:31:48;14.53;;;4.93;;
66581;SDS011;53438;48.898;2.308;2023-07-16T07:34:13;15.33;;;5.07;;
66581;SDS011;53438;48.898;2.308;2023-07-16T07:36:39;17.23;;;4.93;;
66581;SDS011;53438;48.898;2.308;2023-07-16T07:39:04;17.33;;;5.23;;
66581;SDS011;53438;48.898;2.308;2023-07-16T07:41:29;12.43;;;4.30;;
66581;SDS011;53438;48.898;2.308;2023-07-16T07:43:55;12.52;;;5.20;;
66581;SDS011;53438;48.898;2.308;2023-07-16T07:46:20;15.00;;;5.17;;
66581;SDS011;53438;48.898;2.308;2023-07-16T07:48:45;14.03;;;5.10;;
66581;SDS011;53438;48.898;2.308;2023-07-16T07:51:11;15.43;;;4.57;;
66581;SDS011;53438;48.898;2.308;2023-07-16T07:53:36;14.38;;;4.30;;
66581;SDS011;53438;48.898;2.308;2023-07-16T07:56:02;15.17;;;5.37;;
66581;SDS011;53438;48.898;2.308;2023-07-16T07:58:27;15.53;;;4.43;;
66581;SDS011;53438;48.898;2.308;2023-07-16T08:00:53;20.90;;;4.70;;
66581;SDS011;53438;48.898;2.308;2023-07-16T08:03:18;14.50;;;4.23;;
66581;SDS011;53438;48.898;2.308;2023-07-16T08:05:43;11.53;;;4.70;;
66581;SDS011;53438;48.898;2.308;2023-07-16T08:08:08;12.70;;;4.50;;
66581;SDS011;53438;48.898;2.308;2023-07-16T08:10:34;16.45;;;4.60;;
66581;SDS011;53438;48.898;2.308;2023-07-16T08:12:59;13.73;;;4.68;;
66581;SDS011;53438;48.898;2.308;2023-07-16T08:15:24;14.70;;;5.03;;
66581;SDS011;53438;48.898;2.308;2023-07-16T08:17:50;15.00;;;4.43;;
66581;SDS011;53438;48.898;2.308;2023-07-16T08:20:15;15.70;;;4.27;;
66581;SDS011;53438;48.898;2.308;2023-07-16T08:22:41;11.80;;;4.10;;
66581;SDS011;53438;48.898;2.308;2023-07-16T08:25:06;14.48;;;4.18;;
66581;SDS011;53438;48.898;2.308;2023-07-16T08:27:32;12.30;;;4.55;;
66581;SDS011;53438;48.898;2.308;2023-07-16T08:29:58;13.07;;;4.88;;
66581;SDS011;53438;48.898;2.308;2023-07-16T08:32:23;10.60;;;3.73;;
66581;SDS011;53438;48.898;2.308;2023-07-16T08:34:49;13.13;;;4.23;;
66581;SDS011;53438;48.898;2.308;2023-07-16T08:37:14;12.67;;;4.47;;
66581;SDS011;53438;48.898;2.308;2023-07-16T08:39:40;11.45;;;4.22;;
66581;SDS011;53438;48.898;2.308;2023-07-16T08:42:05;11.03;;;4.43;;
66581;SDS011;53438;48.898;2.308;2023-07-16T08:44:31;10.35;;;4.05;;
66581;SDS011;53438;48.898;2.308;2023-07-16T08:46:58;12.20;;;4.53;;
66581;SDS011;53438;48.898;2.308;2023-07-16T08:49:23;10.82;;;4.22;;
66581;SDS011;53438;48.898;2.308;2023-07-16T08:51:54;10.35;;;4.18;;
66581;SDS011;53438;48.898;2.308;2023-07-16T08:54:21;12.70;;;4.00;;
66581;SDS011;53438;48.898;2.308;2023-07-16T08:56:47;11.43;;;5.10;;
66581;SDS011;53438;48.898;2.308;2023-07-16T08:59:14;11.50;;;4.38;;
66581;SDS011;53438;48.898;2.308;2023-07-16T09:01:40;14.10;;;4.63;;
66581;SDS011;53438;48.898;2.308;2023-07-16T09:04:05;14.43;;;4.87;;
66581;SDS011;53438;48.898;2.308;2023-07-16T09:06:31;10.27;;;4.07;;
66581;SDS011;53438;48.898;2.308;2023-07-16T09:08:57;11.43;;;4.40;;
66581;SDS011;53438;48.898;2.308;2023-07-16T09:11:22;10.40;;;4.15;;
66581;SDS011;53438;48.898;2.308;2023-07-16T09:13:48;13.47;;;4.17;;
66581;SDS011;53438;48.898;2.308;2023-07-16T09:16:14;11.05;;;4.15;;
66581;SDS011;53438;48.898;2.308;2023-07-16T09:18:43;12.33;;;3.50;;
66581;SDS011;53438;48.898;2.308;2023-07-16T09:21:08;11.25;;;3.50;;
66581;SDS011;53438;48.898;2.308;2023-07-16T09:23:34;11.70;;;4.03;;
66581;SDS011;53438;48.898;2.308;2023-07-16T09:26:00;14.90;;;3.75;;
66581;SDS011;53438;48.898;2.308;2023-07-16T09:28:26;13.43;;;3.63;;
66581;SDS011;53438;48.898;2.308;2023-07-16T09:30:51;9.38;;;3.20;;
66581;SDS011;53438;48.898;2.308;2023-07-16T09:33:18;9.75;;;3.63;;
66581;SDS011;53438;48.898;2.308;2023-07-16T09:35:47;11.45;;;3.70;;
66581;SDS011;53438;48.898;2.308;2023-07-16T09:38:13;8.05;;;3.80;;
66581;SDS011;53438;48.898;2.308;2023-07-16T09:40:39;12.37;;;4.03;;
66581;SDS011;53438;48.898;2.308;2023-07-16T09:43:07;10.27;;;3.97;;
66581;SDS011;53438;48.898;2.308;2023-07-16T09:45:33;10.93;;;4.28;;
66581;SDS011;53438;48.898;2.308;2023-07-16T09:47:58;9.30;;;3.60;;
66581;SDS011;53438;48.898;2.308;2023-07-16T09:50:24;10.37;;;3.97;;
66581;SDS011;53438;48.898;2.308;2023-07-16T09:52:55;13.20;;;4.45;;
66581;SDS011;53438;48.898;2.308;2023-07-16T09:55:22;10.85;;;3.47;;
66581;SDS011;53438;48.898;2.308;2023-07-16T09:57:48;7.32;;;3.08;;
66581;SDS011;53438;48.898;2.308;2023-07-16T10:00:14;10.93;;;3.83;;
66581;SDS011;53438;48.898;2.308;2023-07-16T10:02:42;13.70;;;4.00;;
66581;SDS011;53438;48.898;2.308;2023-07-16T10:05:15;10.02;;;3.83;;
66581;SDS011;53438;48.898;2.308;2023-07-16T10:07:43;12.95;;;3.28;;
66581;SDS011;53438;48.898;2.308;2023-07-16T10:10:14;9.70;;;3.17;;
66581;SDS011;53438;48.898;2.308;2023-07-16T10:12:42;9.68;;;3.28;;
66581;SDS011;53438;48.898;2.308;2023-07-16T10:15:08;10.23;;;3.40;;
66581;SDS011;53438;48.898;2.308;2023-07-16T10:17:36;8.95;;;3.35;;
66581;SDS011;53438;48.898;2.308;2023-07-16T10:22:41;9.32;;;3.40;;
66581;SDS011;53438;48.898;2.308;2023-07-16T10:27:45;9.27;;;3.50;;
66581;SDS011;53438;48.898;2.308;2023-07-16T10:30:11;11.32;;;3.50;;
66581;SDS011;53438;48.898;2.308;2023-07-16T10:32:37;11.10;;;3.42;;
66581;SDS011;53438;48.898;2.308;2023-07-16T10:35:03;10.88;;;3.58;;
66581;SDS011;53438;48.898;2.308;2023-07-16T10:37:29;11.25;;;3.92;;
66581;SDS011;53438;48.898;2.308;2023-07-16T10:39:57;6.93;;;2.83;;
66581;SDS011;53438;48.898;2.308;2023-07-16T10:42:24;9.23;;;3.40;;
66581;SDS011;53438;48.898;2.308;2023-07-16T10:45:00;7.18;;;3.17;;
66581;SDS011;53438;48.898;2.308;2023-07-16T10:47:33;7.75;;;3.00;;
66581;SDS011;53438;48.898;2.308;2023-07-16T10:50:00;12.60;;;5.15;;
66581;SDS011;53438;48.898;2.308;2023-07-16T10:52:28;10.45;;;3.30;;
66581;SDS011;53438;48.898;2.308;2023-07-16T10:54:54;10.87;;;3.20;;
66581;SDS011;53438;48.898;2.308;2023-07-16T10:57:20;9.17;;;3.57;;
66581;SDS011;53438;48.898;2.308;2023-07-16T10:59:46;9.30;;;3.20;;
66581;SDS011;53438;48.898;2.308;2023-07-16T11:02:14;9.65;;;3.90;;
66581;SDS011;53438;48.898;2.308;2023-07-16T11:04:41;9.82;;;3.33;;
66581;SDS011;53438;48.898;2.308;2023-07-16T11:07:08;7.78;;;2.90;;
66581;SDS011;53438;48.898;2.308;2023-07-16T11:09:35;7.23;;;3.40;;
66581;SDS011;53438;48.898;2.308;2023-07-16T11:12:08;9.52;;;2.88;;
66581;SDS011;53438;48.898;2.308;2023-07-16T11:14:34;9.85;;;3.63;;
66581;SDS011;53438;48.898;2.308;2023-07-16T11:17:04;7.05;;;3.05;;
66581;SDS011;53438;48.898;2.308;2023-07-16T11:19:33;9.90;;;2.65;;
66581;SDS011;53438;48.898;2.308;2023-07-16T11:22:00;8.38;;;4.22;;
66581;SDS011;53438;48.898;2.308;2023-07-16T11:24:26;11.23;;;4.90;;
66581;SDS011;53438;48.898;2.308;2023-07-16T11:26:52;7.57;;;3.60;;
66581;SDS011;53438;48.898;2.308;2023-07-16T11:29:20;8.23;;;2.80;;
66581;SDS011;53438;48.898;2.308;2023-07-16T11:31:50;8.65;;;2.88;;
66581;SDS011;53438;48.898;2.308;2023-07-16T11:34:16;7.03;;;2.80;;
66581;SDS011;53438;48.898;2.308;2023-07-16T11:36:44;10.65;;;3.33;;
66581;SDS011;53438;48.898;2.308;2023-07-16T11:39:13;8.10;;;2.93;;
66581;SDS011;53438;48.898;2.308;2023-07-16T11:41:38;7.57;;;3.15;;
66581;SDS011;53438;48.898;2.308;2023-07-16T11:44:03;6.87;;;2.53;;
66581;SDS011;53438;48.898;2.308;2023-07-16T11:46:32;8.48;;;3.13;;
66581;SDS011;53438;48.898;2.308;2023-07-16T11:48:59;9.90;;;3.13;;
66581;SDS011;53438;48.898;2.308;2023-07-16T11:51:25;7.43;;;3.22;;
66581;SDS011;53438;48.898;2.308;2023-07-16T11:53:50;8.23;;;3.10;;
66581;SDS011;53438;48.898;2.308;2023-07-16T11:56:16;9.52;;;3.13;;
66581;SDS011;53438;48.898;2.308;2023-07-16T11:58:41;13.80;;;3.80;;
66581;SDS011;53438;48.898;2.308;2023-07-16T12:01:06;10.53;;;3.50;;
66581;SDS011;53438;48.898;2.308;2023-07-16T12:03:32;7.77;;;2.90;;
66581;SDS011;53438;48.898;2.308;2023-07-16T12:05:57;10.70;;;4.03;;
66581;SDS011;53438;48.898;2.308;2023-07-16T12:08:22;9.60;;;3.53;;
66581;SDS011;53438;48.898;2.308;2023-07-16T12:10:48;8.15;;;3.22;;
66581;SDS011;53438;48.898;2.308;2023-07-16T12:13:13;10.40;;;3.22;;
66581;SDS011;53438;48.898;2.308;2023-07-16T12:15:38;11.77;;;3.90;;
66581;SDS011;53438;48.898;2.308;2023-07-16T12:18:06;8.68;;;3.60;;
66581;SDS011;53438;48.898;2.308;2023-07-16T12:20:33;9.47;;;3.57;;
66581;SDS011;53438;48.898;2.308;2023-07-16T12:22:59;9.10;;;3.88;;
66581;SDS011;53438;48.898;2.308;2023-07-16T12:25:24;9.17;;;3.80;;
66581;SDS011;53438;48.898;2.308;2023-07-16T12:27:50;11.07;;;3.20;;
66581;SDS011;53438;48.898;2.308;2023-07-16T12:30:17;9.38;;;3.88;;
66581;SDS011;53438;48.898;2.308;2023-07-16T12:32:42;7.40;;;3.57;;
66581;SDS011;53438;48.898;2.308;2023-07-16T12:35:07;6.97;;;3.10;;
66581;SDS011;53438;48.898;2.308;2023-07-16T12:37:33;8.53;;;3.63;;
66581;SDS011;53438;48.898;2.308;2023-07-16T12:39:58;8.47;;;3.90;;
66581;SDS011;53438;48.898;2.308;2023-07-16T12:42:23;9.37;;;3.13;;
66581;SDS011;53438;48.898;2.308;2023-07-16T12:44:49;9.97;;;3.63;;
66581;SDS011;53438;48.898;2.308;2023-07-16T12:47:17;8.48;;;3.92;;
66581;SDS011;53438;48.898;2.308;2023-07-16T12:49:43;7.18;;;3.40;;
66581;SDS011;53438;48.898;2.308;2023-07-16T12:52:09;11.15;;;4.00;;
66581;SDS011;53438;48.898;2.308;2023-07-16T12:54:34;8.77;;;3.90;;
66581;SDS011;53438;48.898;2.308;2023-07-16T12:57:00;9.13;;;3.37;;
66581;SDS011;53438;48.898;2.308;2023-07-16T12:59:25;9.53;;;3.60;;
66581;SDS011;53438;48.898;2.308;2023-07-16T13:01:51;9.53;;;4.07;;
66581;SDS011;53438;48.898;2.308;2023-07-16T13:04:16;9.95;;;4.18;;
66581;SDS011;53438;48.898;2.308;2023-07-16T13:06:41;12.02;;;4.68;;
66581;SDS011;53438;48.898;2.308;2023-07-16T13:09:07;7.70;;;4.13;;
66581;SDS011;53438;48.898;2.308;2023-07-16T13:11:32;34.40;;;5.73;;
66581;SDS011;53438;48.898;2.308;2023-07-16T13:13:58;11.83;;;4.37;;
66581;SDS011;53438;48.898;2.308;2023-07-16T13:16:23;8.45;;;3.88;;
66581;SDS011;53438;48.898;2.308;2023-07-16T13:18:48;9.87;;;4.20;;
66581;SDS011;53438;48.898;2.308;2023-07-16T13:21:14;6.37;;;3.37;;
66581;SDS011;53438;48.898;2.308;2023-07-16T13:23:39;11.07;;;4.20;;
66581;SDS011;53438;48.898;2.308;2023-07-16T13:26:04;10.33;;;4.10;;
66581;SDS011;53438;48.898;2.308;2023-07-16T13:28:30;7.13;;;3.73;;
66581;SDS011;53438;48.898;2.308;2023-07-16T13:30:55;8.63;;;4.23;;
66581;SDS011;53438;48.898;2.308;2023-07-16T13:33:20;9.87;;;3.93;;
66581;SDS011;53438;48.898;2.308;2023-07-16T13:35:46;12.85;;;4.78;;
66581;SDS011;53438;48.898;2.308;2023-07-16T13:38:11;16.27;;;4.10;;
66581;SDS011;53438;48.898;2.308;2023-07-16T13:40:37;9.13;;;4.33;;
66581;SDS011;53438;48.898;2.308;2023-07-16T13:43:03;9.57;;;3.35;;
66581;SDS011;53438;48.898;2.308;2023-07-16T13:45:29;10.70;;;3.87;;
66581;SDS011;53438;48.898;2.308;2023-07-16T13:47:54;7.27;;;3.10;;
66581;SDS011;53438;48.898;2.308;2023-07-16T13:50:20;8.80;;;4.15;;
66581;SDS011;53438;48.898;2.308;2023-07-16T13:52:46;8.63;;;3.53;;
66581;SDS011;53438;48.898;2.308;2023-07-16T13:55:11;8.23;;;3.75;;
66581;SDS011;53438;48.898;2.308;2023-07-16T13:57:36;10.80;;;4.33;;
66581;SDS011;53438;48.898;2.308;2023-07-16T14:00:02;9.73;;;3.53;;
66581;SDS011;53438;48.898;2.308;2023-07-16T14:02:29;9.10;;;3.40;;
66581;SDS011;53438;48.898;2.308;2023-07-16T14:04:54;8.47;;;4.00;;
66581;SDS011;53438;48.898;2.308;2023-07-16T14:07:20;13.00;;;4.63;;
66581;SDS011;53438;48.898;2.308;2023-07-16T14:09:45;13.43;;;5.63;;
66581;SDS011;53438;48.898;2.308;2023-07-16T14:12:10;12.00;;;5.50;;
66581;SDS011;53438;48.898;2.308;2023-07-16T14:14:36;9.43;;;5.23;;
66581;SDS011;53438;48.898;2.308;2023-07-16T14:17:01;10.25;;;4.75;;
66581;SDS011;53438;48.898;2.308;2023-07-16T14:19:27;8.37;;;3.60;;
66581;SDS011;53438;48.898;2.308;2023-07-16T14:21:53;8.25;;;3.90;;
66581;SDS011;53438;48.898;2.308;2023-07-16T14:24:19;9.47;;;4.77;;
66581;SDS011;53438;48.898;2.308;2023-07-16T14:26:44;8.83;;;4.53;;
66581;SDS011;53438;48.898;2.308;2023-07-16T14:29:09;14.20;;;6.03;;
66581;SDS011;53438;48.898;2.308;2023-07-16T14:31:36;13.55;;;5.03;;
66581;SDS011;53438;48.898;2.308;2023-07-16T14:34:01;9.67;;;4.10;;
66581;SDS011;53438;48.898;2.308;2023-07-16T14:36:27;9.43;;;4.15;;
66581;SDS011;53438;48.898;2.308;2023-07-16T14:38:53;8.87;;;3.43;;
66581;SDS011;53438;48.898;2.308;2023-07-16T14:41:19;9.82;;;3.67;;
66581;SDS011;53438;48.898;2.308;2023-07-16T14:43:44;6.33;;;3.30;;
66581;SDS011;53438;48.898;2.308;2023-07-16T14:46:10;8.02;;;3.10;;
66581;SDS011;53438;48.898;2.308;2023-07-16T14:48:40;4.77;;;2.80;;
66581;SDS011;53438;48.898;2.308;2023-07-16T14:51:06;7.18;;;3.28;;
66581;SDS011;53438;48.898;2.308;2023-07-16T14:53:31;5.87;;;3.30;;
66581;SDS011;53438;48.898;2.308;2023-07-16T14:55:56;8.73;;;4.57;;
66581;SDS011;53438;48.898;2.308;2023-07-16T14:58:22;6.90;;;3.33;;
66581;SDS011;53438;48.898;2.308;2023-07-16T15:00:47;9.03;;;3.57;;
66581;SDS011;53438;48.898;2.308;2023-07-16T15:03:12;6.63;;;3.10;;
66581;SDS011;53438;48.898;2.308;2023-07-16T15:05:38;7.40;;;2.80;;
66581;SDS011;53438;48.898;2.308;2023-07-16T15:08:03;9.87;;;3.73;;
66581;SDS011;53438;48.898;2.308;2023-07-16T15:10:29;8.95;;;3.53;;
66581;SDS011;53438;48.898;2.308;2023-07-16T15:12:55;8.85;;;3.95;;
66581;SDS011;53438;48.898;2.308;2023-07-16T15:15:20;8.30;;;3.50;;
66581;SDS011;53438;48.898;2.308;2023-07-16T15:17:46;10.43;;;3.55;;
66581;SDS011;53438;48.898;2.308;2023-07-16T15:20:11;8.37;;;3.53;;
66581;SDS011;53438;48.898;2.308;2023-07-16T15:22:37;10.23;;;3.30;;
66581;SDS011;53438;48.898;2.308;2023-07-16T15:25:03;9.13;;;3.63;;
66581;SDS011;53438;48.898;2.308;2023-07-16T15:27:29;8.15;;;3.28;;
66581;SDS011;53438;48.898;2.308;2023-07-16T15:29:54;8.70;;;3.30;;
66581;SDS011;53438;48.898;2.308;2023-07-16T15:32:20;8.65;;;3.40;;
66581;SDS011;53438;48.898;2.308;2023-07-16T15:34:46;11.30;;;4.23;;
66581;SDS011;53438;48.898;2.308;2023-07-16T15:37:11;9.57;;;3.33;;
66581;SDS011;53438;48.898;2.308;2023-07-16T15:39:36;7.53;;;3.23;;
66581;SDS011;53438;48.898;2.308;2023-07-16T15:42:03;7.07;;;3.70;;
66581;SDS011;53438;48.898;2.308;2023-07-16T15:44:29;6.07;;;2.73;;
66581;SDS011;53438;48.898;2.308;2023-07-16T15:46:54;6.80;;;2.95;;
66581;SDS011;53438;48.898;2.308;2023-07-16T15:49:19;5.43;;;2.80;;
66581;SDS011;53438;48.898;2.308;2023-07-16T15:51:45;9.27;;;3.03;;
66581;SDS011;53438;48.898;2.308;2023-07-16T15:54:10;8.20;;;3.30;;
66581;SDS011;53438;48.898;2.308;2023-07-16T15:56:35;9.33;;;3.53;;
66581;SDS011;53438;48.898;2.308;2023-07-16T15:59:02;9.60;;;3.30;;
66581;SDS011;53438;48.898;2.308;2023-07-16T16:01:28;10.15;;;3.75;;
66581;SDS011;53438;48.898;2.308;2023-07-16T16:03:53;10.13;;;4.00;;
66581;SDS011;53438;48.898;2.308;2023-07-16T16:06:18;5.37;;;2.87;;
66581;SDS011;53438;48.898;2.308;2023-07-16T16:08:44;7.85;;;3.20;;
66581;SDS011;53438;48.898;2.308;2023-07-16T16:11:10;9.80;;;3.83;;
66581;SDS011;53438;48.898;2.308;2023-07-16T16:13:36;6.07;;;3.33;;
66581;SDS011;53438;48.898;2.308;2023-07-16T16:16:02;7.53;;;2.40;;
66581;SDS011;53438;48.898;2.308;2023-07-16T16:18:28;5.82;;;2.80;;
66581;SDS011;53438;48.898;2.308;2023-07-16T16:20:53;9.43;;;3.27;;
66581;SDS011;53438;48.898;2.308;2023-07-16T16:23:18;8.40;;;3.33;;
66581;SDS011;53438;48.898;2.308;2023-07-16T16:25:44;7.93;;;3.67;;
66581;SDS011;53438;48.898;2.308;2023-07-16T16:28:10;8.30;;;3.20;;
66581;SDS011;53438;48.898;2.308;2023-07-16T16:30:36;6.97;;;2.90;;
66581;SDS011;53438;48.898;2.308;2023-07-16T16:33:03;6.18;;;2.85;;
66581;SDS011;53438;48.898;2.308;2023-07-16T16:35:33;5.53;;;2.70;;
66581;SDS011;53438;48.898;2.308;2023-07-16T16:38:00;10.90;;;3.08;;
66581;SDS011;53438;48.898;2.308;2023-07-16T16:40:25;7.87;;;2.57;;
66581;SDS011;53438;48.898;2.308;2023-07-16T16:42:51;6.43;;;2.90;;
66581;SDS011;53438;48.898;2.308;2023-07-16T16:45:18;6.97;;;2.97;;
66581;SDS011;53438;48.898;2.308;2023-07-16T16:47:43;6.80;;;3.10;;
66581;SDS011;53438;48.898;2.308;2023-07-16T16:50:08;6.20;;;2.27;;
66581;SDS011;53438;48.898;2.308;2023-07-16T16:52:36;6.53;;;2.50;;
66581;SDS011;53438;48.898;2.308;2023-07-16T16:55:02;5.32;;;2.22;;
66581;SDS011;53438;48.898;2.308;2023-07-16T16:57:28;8.30;;;3.70;;
66581;SDS011;53438;48.898;2.308;2023-07-16T16:59:55;8.10;;;3.17;;
66581;SDS011;53438;48.898;2.308;2023-07-16T17:02:20;4.53;;;2.40;;
66581;SDS011;53438;48.898;2.308;2023-07-16T17:04:46;4.70;;;2.80;;
66581;SDS011;53438;48.898;2.308;2023-07-16T17:07:11;6.88;;;2.10;;
66581;SDS011;53438;48.898;2.308;2023-07-16T17:09:37;7.97;;;2.63;;
66581;SDS011;53438;48.898;2.308;2023-07-16T17:12:03;6.60;;;2.60;;
66581;SDS011;53438;48.898;2.308;2023-07-16T17:14:29;6.70;;;2.50;;
66581;SDS011;53438;48.898;2.308;2023-07-16T17:16:57;5.47;;;2.38;;
66581;SDS011;53438;48.898;2.308;2023-07-16T17:19:22;10.67;;;3.43;;
66581;SDS011;53438;48.898;2.308;2023-07-16T17:21:48;6.25;;;2.15;;
66581;SDS011;53438;48.898;2.308;2023-07-16T17:24:13;6.40;;;2.50;;
66581;SDS011;53438;48.898;2.308;2023-07-16T17:26:39;7.57;;;2.70;;
66581;SDS011;53438;48.898;2.308;2023-07-16T17:29:06;5.03;;;2.10;;
66581;SDS011;53438;48.898;2.308;2023-07-16T17:31:31;7.97;;;2.83;;
66581;SDS011;53438;48.898;2.308;2023-07-16T17:33:58;11.18;;;3.20;;
66581;SDS011;53438;48.898;2.308;2023-07-16T17:36:26;7.40;;;2.92;;
66581;SDS011;53438;48.898;2.308;2023-07-16T17:38:52;9.05;;;3.25;;